Gateway, Minnesota
Current Conditions -  °F | °C
As of 1:55 PM on Thursday 18 Dec 2014 (Local Time) from KINL Reporting Station
Overcast Overcast  
Wind Chill: 19°   Ceiling: 1700
Heat Index: 19°   Visibility: 10mi
Dew Point: 13°   Wind: 3mph
Humidity: 77%   Direction: NA
Pressure: 30.24"   Gusts: NA
Location:  48.5197°N, 92.902°W
Report Text: KINL 181955Z AUTO VRB03KT 10SM OVC017 M07/M11 A3024 RMK AO2 SLP269 T10721106
Loading
Personal Weather Stations






























Interactive Weather Map New forecast layout! Learn more

10-Day Weather Forecast

Advertisements
Track Severe Weather on mobile